Gerhard Schulte — VRBY5 — position and weather

sailwx.info

Track history (hours):
 
Tides and Currents Weather Stations Pressure Air Temp Water Temp Dewpoint Dewpoint Depression Visibility Wind Speed Wind Dir Waves Ship Positions

Gerhard Schulte

Last reported at 2018-Jun-22 14:48 UTC. Time now 2018-Jun-25 01:59 UTC.
Position N 36°16' E 014°54'.

Length 231 m; draft 8.6 m.

Type: Ship. MMSI: 477214400.

Date/timePositionNaut miles runAvg speedWind from/ knotsBaromVisibWave heightAir tempDewpointWater temp
2018-Jun-22 14:48N 36°16' E 014°54'412.1
2018-Jun-22 14:30N 36°17' E 014°50'612.2
2018-Jun-22 14:00N 36°19' E 014°42'612.2
2018-Jun-22 13:30N 36°21' E 014°35'1212.1
2018-Jun-22 12:31N 36°24' E 014°21'112.2
2018-Jun-22 12:28N 36°24' E 014°20'1612.4
2018-Jun-22 11:11N 36°29' E 014°01'212.4
2018-Jun-22 11:00N 36°30' E 013°59'1012.3
2018-Jun-22 10:12N 36°33' E 013°47'34811.4
2018-Jun-21 03:47N 37°21' E 006°36'14911.6
2018-Jun-20 14:53N 37°07' E 003°29'510.8
2018-Jun-20 14:26N 37°07' E 003°24'510.7
2018-Jun-20 13:58N 37°06' E 003°17'  
2018-Jun-18 05:24N 35°52' W 005°35'36 7.3
2018-Jun-18 00:29N 36°06' W 006°16'  
2018-Jun-14 20:54N 35°58' W 005°38'4 9.4
2018-Jun-14 20:30N 35°58' W 005°34'4 8.4
2018-Jun-14 20:00N 35°60' W 005°29'4 7.0
2018-Jun-14 19:30N 36°01' W 005°24'3 6.7
2018-Jun-14 19:00N 36°02' W 005°21'4 7.7
2018-Jun-14 18:30N 36°05' W 005°18'2 3.7
2018-Jun-14 18:00N 36°05' W 005°20'5 9.6
2018-Jun-14 17:30N 36°09' W 005°24'2 3.6
2018-Jun-14 17:00N 36°09' W 005°26'0 0.0
2018-Jun-14 16:24N 36°09' W 005°26'0 0.0
2018-Jun-14 16:00N 36°09' W 005°26'0 0.0
2018-Jun-14 15:30N 36°09' W 005°26'0 0.0
2018-Jun-14 14:15N 36°09' W 005°26'0 0.0
2018-Jun-14 13:42N 36°09' W 005°26'0 0.0
2018-Jun-14 13:15N 36°09' W 005°26'0 0.0
2018-Jun-14 12:51N 36°09' W 005°26'0 0.0
2018-Jun-14 12:27N 36°09' W 005°26'0 0.0
2018-Jun-14 06:27N 36°09' W 005°26'0 0.0
2018-Jun-14 05:51N 36°09' W 005°26'0 0.0
2018-Jun-14 05:27N 36°09' W 005°26'0 0.0
2018-Jun-14 04:33N 36°09' W 005°26'0 0.0
2018-Jun-14 04:27N 36°09' W 005°26'0 0.0
2018-Jun-14 03:51N 36°09' W 005°26'0 0.1
2018-Jun-14 03:30N 36°09' W 005°26'0 0.0
2018-Jun-14 02:54N 36°09' W 005°26'0 0.0
2018-Jun-14 02:27N 36°09' W 005°26'0 0.0
2018-Jun-14 01:57N 36°09' W 005°26'0 0.0
2018-Jun-14 01:27N 36°09' W 005°26'0 0.0
2018-Jun-13 23:51N 36°09' W 005°26'2 2.3
2018-Jun-13 22:51N 36°07' W 005°24'3 8.3
2018-Jun-13 22:30N 36°05' W 005°23'1 2.7
2018-Jun-13 22:01N 36°04' W 005°22'1 2.8
2018-Jun-13 21:30N 36°03' W 005°21'3 6.3
2018-Jun-13 21:00N 35°60' W 005°19'510.4
2018-Jun-13 20:31N 35°58' W 005°25'5 9.3
2018-Jun-13 20:00N 35°57' W 005°31'  
Track history (hours):
 
Tides and Currents Weather Stations Pressure Air Temp Water Temp Dewpoint Dewpoint Depression Visibility Wind Speed Wind Dir Waves Ship Positions

Gerhard Schulte

Last reported at 2018-Jun-22 14:48 UTC. Time now 2018-Jun-25 01:59 UTC.
Position N 36°16' E 014°54'.

Length 231 m; draft 8.6 m.

Type: Ship. MMSI: 477214400.

Date/timePositionNaut miles runAvg speedWind from/ knotsBaromVisibWave heightAir tempDewpointWater temp
2018-Jun-22 14:48N 36°16' E 014°54'412.1
2018-Jun-22 14:30N 36°17' E 014°50'612.2
2018-Jun-22 14:00N 36°19' E 014°42'612.2
2018-Jun-22 13:30N 36°21' E 014°35'1212.1
2018-Jun-22 12:31N 36°24' E 014°21'112.2
2018-Jun-22 12:28N 36°24' E 014°20'1612.4
2018-Jun-22 11:11N 36°29' E 014°01'212.4
2018-Jun-22 11:00N 36°30' E 013°59'1012.3
2018-Jun-22 10:12N 36°33' E 013°47'34811.4
2018-Jun-21 03:47N 37°21' E 006°36'14911.6
2018-Jun-20 14:53N 37°07' E 003°29'510.8
2018-Jun-20 14:26N 37°07' E 003°24'510.7
2018-Jun-20 13:58N 37°06' E 003°17'  
2018-Jun-18 05:24N 35°52' W 005°35'36 7.3
2018-Jun-18 00:29N 36°06' W 006°16'  
2018-Jun-14 20:54N 35°58' W 005°38'4 9.4
2018-Jun-14 20:30N 35°58' W 005°34'4 8.4
2018-Jun-14 20:00N 35°60' W 005°29'4 7.0
2018-Jun-14 19:30N 36°01' W 005°24'3 6.7
2018-Jun-14 19:00N 36°02' W 005°21'4 7.7
2018-Jun-14 18:30N 36°05' W 005°18'2 3.7
2018-Jun-14 18:00N 36°05' W 005°20'5 9.6
2018-Jun-14 17:30N 36°09' W 005°24'2 3.6
2018-Jun-14 17:00N 36°09' W 005°26'0 0.0
2018-Jun-14 16:24N 36°09' W 005°26'0 0.0
2018-Jun-14 16:00N 36°09' W 005°26'0 0.0
2018-Jun-14 15:30N 36°09' W 005°26'0 0.0
2018-Jun-14 14:15N 36°09' W 005°26'0 0.0
2018-Jun-14 13:42N 36°09' W 005°26'0 0.0
2018-Jun-14 13:15N 36°09' W 005°26'0 0.0
2018-Jun-14 12:51N 36°09' W 005°26'0 0.0
2018-Jun-14 12:27N 36°09' W 005°26'0 0.0
2018-Jun-14 06:27N 36°09' W 005°26'0 0.0
2018-Jun-14 05:51N 36°09' W 005°26'0 0.0
2018-Jun-14 05:27N 36°09' W 005°26'0 0.0
2018-Jun-14 04:33N 36°09' W 005°26'0 0.0
2018-Jun-14 04:27N 36°09' W 005°26'0 0.0
2018-Jun-14 03:51N 36°09' W 005°26'0 0.1
2018-Jun-14 03:30N 36°09' W 005°26'0 0.0
2018-Jun-14 02:54N 36°09' W 005°26'0 0.0
2018-Jun-14 02:27N 36°09' W 005°26'0 0.0
2018-Jun-14 01:57N 36°09' W 005°26'0 0.0
2018-Jun-14 01:27N 36°09' W 005°26'0 0.0
2018-Jun-13 23:51N 36°09' W 005°26'2 2.3
2018-Jun-13 22:51N 36°07' W 005°24'3 8.3
2018-Jun-13 22:30N 36°05' W 005°23'1 2.7
2018-Jun-13 22:01N 36°04' W 005°22'1 2.8
2018-Jun-13 21:30N 36°03' W 005°21'3 6.3
2018-Jun-13 21:00N 35°60' W 005°19'510.4
2018-Jun-13 20:31N 35°58' W 005°25'5 9.3
2018-Jun-13 20:00N 35°57' W 005°31'  

Dump ship's entire track history